Terminal Aerodrome Forecast
Issued by NWS

Home | Current Version | Previous Version | Text Only | Print | Product List | Glossary On
Versions: 1 2 3 4 5 6 7 8 9 10 11 12 13
000
FTUS46 KHNX 211725
TAFBFL
TAF
KBFL 211725Z 2118/2218 VRB03KT 1SM BR OVC002
      TEMPO 2118/2120 3SM BR OVC006
     FM212000 VRB04KT 4SM BR BKN007
     FM221200 VRB03KT 1/4SM FG OVC001=

USA.gov is the U.S. government's official web portal to all federal, state and local government web resources and services.